createdAt,value
2019-02-16T00:03:39.931Z,12.55
2019-02-16T00:07:24.823Z,12.51
2019-02-16T00:11:09.877Z,12.61
2019-02-16T00:14:54.894Z,12.50
2019-02-16T00:18:39.484Z,12.46
2019-02-16T00:22:24.100Z,12.26
2019-02-16T00:26:08.736Z,12.27
2019-02-16T00:29:53.671Z,12.19
2019-02-16T00:33:38.657Z,12.13
2019-02-16T00:37:23.262Z,12.08
2019-02-16T00:41:07.918Z,12.05
2019-02-16T00:44:53.208Z,12.10
2019-02-16T00:48:37.900Z,12.18
2019-02-16T00:52:22.498Z,12.14
2019-02-16T00:56:00.374Z,12.15
2019-02-16T00:59:45.242Z,12.11
2019-02-16T01:03:29.824Z,12.10
2019-02-16T01:07:14.842Z,12.06
2019-02-16T01:10:59.774Z,12.07
2019-02-16T01:14:44.381Z,11.99
2019-02-16T01:18:28.983Z,11.91
2019-02-16T01:22:13.568Z,11.89
2019-02-16T01:25:58.189Z,11.89
2019-02-16T01:29:43.144Z,11.88
2019-02-16T01:33:28.146Z,11.84
2019-02-16T01:37:12.751Z,11.70
2019-02-16T01:40:57.424Z,11.75
2019-02-16T01:44:42.088Z,11.76
2019-02-16T01:48:27.005Z,11.58
2019-02-16T01:52:11.664Z,11.55
2019-02-16T01:55:56.607Z,11.39
2019-02-16T01:59:34.153Z,11.33
2019-02-16T02:03:19.107Z,11.34
2019-02-16T02:06:56.885Z,11.31
2019-02-16T02:10:41.821Z,11.40
2019-02-16T02:14:26.523Z,11.39
2019-02-16T02:18:11.216Z,11.45
2019-02-16T02:21:55.841Z,11.27
2019-02-16T02:25:40.810Z,11.10
2019-02-16T02:29:25.450Z,11.33
2019-02-16T02:33:10.098Z,11.29
2019-02-16T02:36:55.026Z,11.22
2019-02-16T02:40:39.659Z,11.21
2019-02-16T02:44:24.283Z,11.18
2019-02-16T02:48:09.293Z,10.82
2019-02-16T02:51:53.917Z,10.89
2019-02-16T02:55:38.587Z,10.66
2019-02-16T02:59:24.153Z,10.88
2019-02-16T03:03:08.796Z,10.57
2019-02-16T03:06:46.540Z,10.76
2019-02-16T03:10:31.189Z,10.52
2019-02-16T03:14:16.377Z,10.44
2019-02-16T03:18:01.033Z,10.51
2019-02-16T03:21:45.686Z,10.51
2019-02-16T03:25:30.644Z,10.69
2019-02-16T03:29:53.462Z,10.68
2019-02-16T03:33:59.917Z,10.71
2019-02-16T03:38:22.673Z,10.69
2019-02-16T03:42:07.336Z,10.66
2019-02-16T03:45:51.987Z,10.53
2019-02-16T03:49:36.940Z,10.60
2019-02-16T03:53:21.598Z,10.58
2019-02-16T03:57:06.610Z,10.51
2019-02-16T04:00:51.299Z,10.66
2019-02-16T04:04:35.969Z,10.66
2019-02-16T04:08:12.840Z,10.54
2019-02-16T04:11:57.479Z,10.41
2019-02-16T04:15:42.199Z,10.53
2019-02-16T04:19:26.858Z,10.46
2019-02-16T04:23:11.861Z,10.39
2019-02-16T04:26:57.006Z,10.31
2019-02-16T04:30:41.649Z,10.15
2019-02-16T04:34:27.009Z,10.21
2019-02-16T04:38:11.634Z,10.18
2019-02-16T04:41:56.271Z,10.12
2019-02-16T04:45:40.910Z,9.97
2019-02-16T04:49:25.521Z,9.91
2019-02-16T04:53:10.104Z,9.75
2019-02-16T04:56:54.734Z,9.65
2019-02-16T05:00:31.688Z,9.81
2019-02-16T05:04:16.298Z,9.69
2019-02-16T05:08:01.255Z,9.77
2019-02-16T05:11:45.887Z,9.67
2019-02-16T05:15:30.517Z,9.70
2019-02-16T05:19:15.133Z,9.41
2019-02-16T05:22:59.754Z,9.50
2019-02-16T05:26:44.382Z,9.58
2019-02-16T05:30:28.989Z,9.61
2019-02-16T05:34:13.591Z,9.49
2019-02-16T05:37:58.188Z,9.54
2019-02-16T05:41:43.136Z,9.47
2019-02-16T05:45:28.018Z,9.55
2019-02-16T05:49:12.643Z,9.21
2019-02-16T05:52:57.258Z,9.40
2019-02-16T05:56:41.937Z,9.47
2019-02-16T06:00:20.656Z,9.49
2019-02-16T06:04:05.240Z,9.57
2019-02-16T06:07:50.220Z,9.45
2019-02-16T06:11:34.837Z,9.37
2019-02-16T06:15:19.459Z,9.37
2019-02-16T06:19:04.405Z,9.20
2019-02-16T06:26:34.330Z,9.26
2019-02-16T06:30:29.285Z,9.31
2019-02-16T06:34:17.251Z,9.28
2019-02-16T06:38:01.885Z,9.29
2019-02-16T06:41:46.508Z,9.17
2019-02-16T06:45:31.307Z,9.02
2019-02-16T06:49:16.148Z,8.92
2019-02-16T06:57:10.852Z,9.18
2019-02-16T07:00:47.593Z,9.05
2019-02-16T07:04:32.219Z,9.16
2019-02-16T07:08:16.854Z,9.00
2019-02-16T07:12:01.447Z,9.11
2019-02-16T07:19:56.346Z,9.15
2019-02-16T07:23:40.948Z,8.96
2019-02-16T07:27:25.612Z,9.17
2019-02-16T07:31:10.482Z,9.13
2019-02-16T07:34:55.088Z,8.91
2019-02-16T07:38:39.678Z,9.16
2019-02-16T07:46:29.806Z,9.27
2019-02-16T07:50:33.228Z,9.11
2019-02-16T07:54:32.431Z,9.26
2019-02-16T07:58:22.415Z,9.47
2019-02-16T08:02:06.502Z,9.45
2019-02-16T08:06:09.935Z,9.47
2019-02-16T08:10:26.019Z,9.62
2019-02-16T08:14:19.664Z,9.53
2019-02-16T08:18:13.182Z,9.76
2019-02-16T08:22:16.983Z,9.80
2019-02-16T08:26:20.456Z,9.89
2019-02-16T08:30:15.116Z,10.22
2019-02-16T08:34:18.552Z,10.04
2019-02-16T08:38:22.034Z,10.30
2019-02-16T08:42:25.568Z,10.26
2019-02-16T08:46:29.106Z,10.33
2019-02-16T08:50:32.567Z,10.33
2019-02-16T08:54:36.071Z,10.33
2019-02-16T08:58:39.616Z,10.56
2019-02-16T09:02:35.407Z,10.59
2019-02-16T09:10:59.468Z,11.03
2019-02-16T09:15:02.920Z,11.11
2019-02-16T09:19:06.425Z,10.95
2019-02-16T09:27:10.621Z,11.33
2019-02-16T09:31:14.574Z,11.75
2019-02-16T09:35:18.089Z,12.06
2019-02-16T09:39:44.458Z,12.01
2019-02-16T09:43:48.458Z,12.66
2019-02-16T09:47:41.581Z,12.92
2019-02-16T09:51:45.483Z,14.17
2019-02-16T09:55:48.941Z,16.37
2019-02-16T09:59:43.698Z,18.75
2019-02-16T10:03:47.185Z,20.29
2019-02-16T10:07:50.657Z,19.20
2019-02-16T10:11:42.552Z,19.52
2019-02-16T10:16:06.822Z,19.81
2019-02-16T10:20:10.299Z,21.57
2019-02-16T10:24:17.887Z,21.58
2019-02-16T10:28:13.253Z,23.04
2019-02-16T10:32:16.793Z,23.38
2019-02-16T10:36:20.218Z,22.70
2019-02-16T10:40:10.604Z,22.90
2019-02-16T10:44:14.106Z,25.20
2019-02-16T10:48:17.565Z,24.90
2019-02-16T10:52:09.244Z,24.66
2019-02-16T10:56:13.242Z,24.72
2019-02-16T11:00:16.685Z,25.46
2019-02-16T11:04:13.237Z,26.72
2019-02-16T11:08:16.751Z,25.33
2019-02-16T11:12:20.253Z,24.82
2019-02-16T11:16:23.709Z,26.57
2019-02-16T11:24:35.914Z,28.63
2019-02-16T11:28:33.821Z,27.62
2019-02-16T11:32:59.415Z,27.57
2019-02-16T11:37:02.922Z,28.72
2019-02-16T11:40:53.122Z,27.39
2019-02-16T11:44:56.632Z,28.57
2019-02-16T11:49:00.087Z,27.32
2019-02-16T11:53:03.849Z,26.96
2019-02-16T11:57:07.328Z,25.56
2019-02-16T12:01:06.940Z,26.12
2019-02-16T12:04:59.775Z,25.27
2019-02-16T12:09:03.243Z,25.56
2019-02-16T12:13:06.797Z,24.82
2019-02-16T12:17:10.278Z,23.85
2019-02-16T12:21:03.668Z,23.48
2019-02-16T12:25:07.136Z,22.84
2019-02-16T12:33:12.535Z,25.42
2019-02-16T12:37:16.008Z,25.50
2019-02-16T12:41:19.505Z,26.04
2019-02-16T12:45:11.460Z,27.11
2019-02-16T12:53:04.977Z,25.51
2019-02-16T12:57:08.527Z,25.29
2019-02-16T13:04:42.337Z,26.85
2019-02-16T13:08:45.912Z,27.20
2019-02-16T13:12:49.484Z,29.23
2019-02-16T13:16:52.977Z,28.80
2019-02-16T13:20:44.394Z,29.56
2019-02-16T13:24:47.870Z,30.59
2019-02-16T13:28:51.443Z,28.70
2019-02-16T13:32:54.920Z,28.41
2019-02-16T13:36:47.794Z,28.59
2019-02-16T13:40:51.284Z,27.57
2019-02-16T13:44:55.090Z,28.47
2019-02-16T13:48:47.581Z,29.02
2019-02-16T13:52:38.066Z,27.94
2019-02-16T13:56:35.725Z,29.00
2019-02-16T14:00:39.790Z,29.53
2019-02-16T14:04:30.992Z,29.26
2019-02-16T14:08:34.450Z,29.97
2019-02-16T14:12:37.894Z,28.97
2019-02-16T14:16:41.374Z,26.79
2019-02-16T14:24:48.410Z,25.88
2019-02-16T14:28:35.596Z,26.02
2019-02-16T14:32:20.186Z,27.37
2019-02-16T14:47:49.140Z,29.70
2019-02-16T14:51:33.760Z,29.29
2019-02-16T15:02:51.179Z,29.63
2019-02-16T15:10:39.318Z,27.29
2019-02-16T15:14:23.969Z,27.80
2019-02-16T15:18:08.678Z,26.63
2019-02-16T15:21:53.278Z,27.97
2019-02-16T15:25:37.895Z,26.38
2019-02-16T15:37:10.174Z,26.17
2019-02-16T15:56:15.613Z,24.31
2019-02-16T16:00:00.727Z,23.60
2019-02-16T16:03:41.179Z,23.14
2019-02-16T16:07:25.806Z,22.71
2019-02-16T16:19:58.025Z,20.63
2019-02-16T16:24:01.630Z,20.29
2019-02-16T16:28:05.177Z,19.92
2019-02-16T16:31:59.168Z,19.45
2019-02-16T16:36:01.967Z,19.61
2019-02-16T16:44:35.841Z,18.65
2019-02-16T16:48:39.343Z,18.31
2019-02-16T16:52:43.160Z,18.25
2019-02-16T16:56:48.460Z,17.39
2019-02-16T17:00:52.077Z,17.05
2019-02-16T17:09:02.909Z,16.63
2019-02-16T17:13:06.364Z,16.56
2019-02-16T17:17:09.852Z,16.14
2019-02-16T17:21:13.307Z,15.98
2019-02-16T17:25:18.300Z,15.62
2019-02-16T17:29:22.066Z,15.58
2019-02-16T17:33:25.548Z,15.38
2019-02-16T17:37:41.420Z,15.16
2019-02-16T17:41:29.683Z,15.20
2019-02-16T17:45:33.168Z,14.80
2019-02-16T17:49:36.636Z,14.56
2019-02-16T17:53:40.094Z,14.36
2019-02-16T17:57:43.689Z,14.02
2019-02-16T18:01:47.426Z,14.19
2019-02-16T18:05:50.896Z,13.99
2019-02-16T18:09:54.365Z,14.12
2019-02-16T18:13:57.853Z,13.96
2019-02-16T18:18:01.342Z,13.59
2019-02-16T18:22:05.088Z,13.53
2019-02-16T18:26:08.572Z,13.44
2019-02-16T18:34:17.644Z,13.22
2019-02-16T18:38:02.207Z,13.04
2019-02-16T18:42:05.692Z,12.88
2019-02-16T18:45:44.010Z,12.83
2019-02-16T18:49:39.830Z,12.74
2019-02-16T18:53:45.755Z,12.86
2019-02-16T18:57:49.243Z,12.73
2019-02-16T19:01:41.827Z,12.83
2019-02-16T19:05:45.310Z,13.11
2019-02-16T19:09:49.219Z,13.02
2019-02-16T19:13:52.031Z,12.72
2019-02-16T19:17:55.724Z,12.62
2019-02-16T19:21:59.258Z,12.42
2019-02-16T19:25:59.812Z,12.26
2019-02-16T19:30:03.292Z,11.93
2019-02-16T19:34:06.740Z,11.82
2019-02-16T19:38:10.207Z,11.90
2019-02-16T19:41:54.613Z,11.95
2019-02-16T19:45:58.085Z,11.76
2019-02-16T19:49:43.027Z,11.80
2019-02-16T19:53:46.514Z,11.78
2019-02-16T19:57:49.948Z,11.92
2019-02-16T20:01:53.417Z,11.64
2019-02-16T20:05:56.919Z,11.75
2019-02-16T20:10:00.403Z,11.88
2019-02-16T20:14:04.408Z,11.61
2019-02-16T20:18:07.851Z,11.49
2019-02-16T20:22:11.566Z,11.29
2019-02-16T20:26:15.008Z,11.36
2019-02-16T20:30:18.486Z,11.00
2019-02-16T20:34:22.201Z,11.20
2019-02-16T20:38:26.252Z,11.21
2019-02-16T20:42:22.607Z,11.20
2019-02-16T20:46:14.458Z,11.14
2019-02-16T20:50:18.198Z,10.85
2019-02-16T20:54:21.685Z,10.82
2019-02-16T20:58:25.178Z,10.70
2019-02-16T21:02:17.308Z,10.62
2019-02-16T21:06:20.767Z,10.50
2019-02-16T21:10:24.448Z,10.21
2019-02-16T21:14:27.903Z,10.14
2019-02-16T21:18:31.406Z,9.90
2019-02-16T21:22:35.194Z,9.96
2019-02-16T21:26:39.776Z,9.69
2019-02-16T21:30:43.832Z,9.64
2019-02-16T21:34:47.554Z,9.51
2019-02-16T21:38:51.289Z,9.31
2019-02-16T21:42:54.418Z,9.33
2019-02-16T21:46:50.214Z,9.25
2019-02-16T21:50:53.672Z,9.26
2019-02-16T21:54:42.658Z,9.02
2019-02-16T21:58:46.389Z,8.94
2019-02-16T22:02:49.915Z,8.92
2019-02-16T22:06:53.370Z,8.73
2019-02-16T22:10:56.794Z,8.89
2019-02-16T22:14:41.676Z,8.78
2019-02-16T22:18:26.977Z,8.95
2019-02-16T22:22:11.651Z,8.81
2019-02-16T22:30:00.115Z,8.86
2019-02-16T22:34:41.812Z,8.67
2019-02-16T22:38:19.252Z,8.58
2019-02-16T22:42:04.237Z,8.61
2019-02-16T22:45:49.234Z,8.64
2019-02-16T22:53:07.030Z,8.94
2019-02-16T22:56:51.604Z,8.86
2019-02-16T23:00:42.632Z,8.84
2019-02-16T23:04:27.282Z,8.58
2019-02-16T23:08:12.330Z,8.60
2019-02-16T23:11:57.042Z,8.57
2019-02-16T23:15:41.644Z,8.43
2019-02-16T23:19:26.303Z,8.72
2019-02-16T23:23:11.058Z,9.01
2019-02-16T23:26:56.081Z,9.35
2019-02-16T23:30:41.422Z,9.56
2019-02-16T23:34:26.045Z,9.66
2019-02-16T23:38:03.502Z,9.94
2019-02-16T23:41:48.431Z,10.12
2019-02-16T23:45:33.055Z,9.74
2019-02-16T23:49:17.681Z,9.64
2019-02-16T23:53:02.299Z,9.63
2019-02-16T23:57:06.088Z,9.63
